createdAt,value
2018-12-11T00:04:38.760Z,-0.20
2018-12-11T00:09:33.342Z,-0.30
2018-12-11T00:14:27.851Z,-0.30
2018-12-11T00:19:22.373Z,-0.40
2018-12-11T00:24:16.849Z,-0.40
2018-12-11T00:29:11.311Z,-0.40
2018-12-11T00:34:05.799Z,-0.50
2018-12-11T00:39:00.282Z,-0.60
2018-12-11T00:43:55.010Z,-0.60
2018-12-11T00:48:49.571Z,-0.60
2018-12-11T00:53:44.105Z,-0.60
2018-12-11T00:58:38.620Z,-0.80
2018-12-11T01:03:33.214Z,-0.80
2018-12-11T01:08:27.879Z,-0.90
2018-12-11T01:13:22.375Z,-1.00
2018-12-11T01:18:16.867Z,-1.10
2018-12-11T01:23:11.365Z,-1.10
2018-12-11T01:28:05.911Z,-1.20
2018-12-11T01:33:00.365Z,-1.30
2018-12-11T01:37:54.929Z,-1.30
2018-12-11T01:42:49.760Z,-1.40
2018-12-11T01:47:44.304Z,-1.50
2018-12-11T01:52:38.784Z,-1.60
2018-12-11T01:57:35.098Z,-1.70
2018-12-11T02:02:29.654Z,-1.80
2018-12-11T02:07:24.153Z,-1.80
2018-12-11T02:12:18.629Z,-1.90
2018-12-11T02:17:13.104Z,-1.90
2018-12-11T02:22:07.604Z,-2.00
2018-12-11T02:27:02.153Z,-2.10
2018-12-11T02:31:56.716Z,-2.10
2018-12-11T02:36:51.232Z,-2.10
2018-12-11T02:41:45.749Z,-2.10
2018-12-11T02:46:40.277Z,-2.10
2018-12-11T02:51:34.750Z,-2.10
2018-12-11T02:56:29.226Z,-2.10
2018-12-11T03:01:23.810Z,-2.10
2018-12-11T03:06:18.298Z,-2.10
2018-12-11T03:11:12.773Z,-2.20
2018-12-11T03:16:07.281Z,-2.20
2018-12-11T03:21:05.326Z,-2.20
2018-12-11T03:25:59.853Z,-2.20
2018-12-11T03:30:54.367Z,-2.00
2018-12-11T03:35:48.927Z,-1.90
2018-12-11T03:40:43.412Z,-1.90
2018-12-11T03:45:38.014Z,-1.80
2018-12-11T03:50:32.489Z,-1.80
2018-12-11T03:55:26.983Z,-1.80
2018-12-11T04:00:21.474Z,-1.80
2018-12-11T04:05:15.934Z,-1.90
2018-12-11T04:10:10.437Z,-1.90
2018-12-11T04:15:05.429Z,-2.00
2018-12-11T04:19:59.884Z,-2.00
2018-12-11T04:24:54.334Z,-2.00
2018-12-11T04:29:48.831Z,-2.00
2018-12-11T04:34:43.412Z,-2.10
2018-12-11T04:39:37.882Z,-2.10
2018-12-11T04:44:32.436Z,-2.20
2018-12-11T04:49:26.905Z,-2.30
2018-12-11T04:54:21.499Z,-2.40
2018-12-11T04:59:15.996Z,-2.50
2018-12-11T05:04:10.497Z,-2.50
2018-12-11T05:09:07.213Z,-2.50
2018-12-11T05:14:01.690Z,-2.60
2018-12-11T05:18:56.341Z,-2.60
2018-12-11T05:23:50.848Z,-2.80
2018-12-11T05:28:45.380Z,-2.80
2018-12-11T05:33:39.845Z,-2.90
2018-12-11T05:38:37.232Z,-2.90
2018-12-11T05:43:32.095Z,-2.90
2018-12-11T05:48:26.637Z,-3.00
2018-12-11T05:53:21.148Z,-3.00
2018-12-11T05:58:15.629Z,-3.00
2018-12-11T06:03:10.140Z,-3.10
2018-12-11T06:08:04.653Z,-3.20
2018-12-11T06:12:59.141Z,-3.20
2018-12-11T06:17:53.625Z,-3.20
2018-12-11T06:22:48.118Z,-3.20
2018-12-11T06:27:42.669Z,-3.20
2018-12-11T06:32:37.158Z,-3.30
2018-12-11T06:37:31.681Z,-3.40
2018-12-11T06:42:26.269Z,-3.40
2018-12-11T06:47:21.078Z,-3.40
2018-12-11T06:52:15.588Z,-3.40
2018-12-11T06:57:10.093Z,-3.20
2018-12-11T07:02:04.656Z,-3.10
2018-12-11T07:06:59.133Z,-3.10
2018-12-11T07:11:53.677Z,-3.20
2018-12-11T07:16:49.070Z,-3.10
2018-12-11T07:21:43.933Z,-3.10
2018-12-11T07:26:38.413Z,-3.10
2018-12-11T07:31:32.936Z,-3.00
2018-12-11T07:36:27.417Z,-2.90
2018-12-11T07:41:21.904Z,-2.80
2018-12-11T07:46:16.434Z,-2.70
2018-12-11T07:51:10.945Z,-2.60
2018-12-11T07:56:05.445Z,-2.50
2018-12-11T08:00:59.916Z,-2.20
2018-12-11T08:05:54.394Z,-1.90
2018-12-11T08:10:48.881Z,-1.70
2018-12-11T08:15:43.506Z,-1.40
2018-12-11T08:20:38.048Z,-1.20
2018-12-11T08:25:32.521Z,-1.00
2018-12-11T08:30:27.044Z,-0.80
2018-12-11T08:35:21.524Z,-0.50
2018-12-11T08:40:16.012Z,-0.50
2018-12-11T08:45:11.134Z,-0.30
2018-12-11T08:50:07.180Z,0.00
2018-12-11T08:55:01.653Z,0.20
2018-12-11T08:59:56.145Z,0.50
2018-12-11T09:04:59.966Z,0.80
2018-12-11T09:09:55.094Z,1.00
2018-12-11T09:14:49.637Z,1.30
2018-12-11T09:19:44.137Z,1.50
2018-12-11T09:24:38.635Z,1.70
2018-12-11T09:29:33.110Z,2.00
2018-12-11T09:34:27.590Z,2.20
2018-12-11T09:39:22.069Z,2.50
2018-12-11T09:44:16.552Z,2.80
2018-12-11T09:49:11.021Z,3.00
2018-12-11T09:54:05.525Z,3.20
2018-12-11T09:59:00.104Z,3.50
2018-12-11T10:03:54.962Z,3.80
2018-12-11T10:08:49.409Z,4.30
2018-12-11T10:13:44.025Z,4.90
2018-12-11T10:18:38.549Z,5.20
2018-12-11T10:23:33.613Z,5.40
2018-12-11T10:28:29.111Z,5.70
2018-12-11T10:33:23.663Z,5.80
2018-12-11T10:38:19.359Z,6.00
2018-12-11T10:43:13.962Z,6.00
2018-12-11T10:48:08.409Z,6.20
2018-12-11T10:53:02.876Z,6.10
2018-12-11T10:57:57.600Z,6.20
2018-12-11T11:02:57.544Z,6.50
2018-12-11T11:07:52.004Z,6.60
2018-12-11T11:12:53.166Z,6.50
2018-12-11T11:17:48.304Z,6.70
2018-12-11T11:22:43.397Z,7.00
2018-12-11T11:27:38.104Z,7.10
2018-12-11T11:32:33.969Z,7.30
2018-12-11T11:37:30.196Z,7.90
2018-12-11T11:42:27.743Z,8.20
2018-12-11T11:47:26.619Z,8.20
2018-12-11T11:52:21.341Z,8.30
2018-12-11T11:57:16.462Z,8.40
2018-12-11T12:02:11.177Z,8.50
2018-12-11T12:07:05.693Z,9.00
2018-12-11T12:12:00.216Z,9.30
2018-12-11T12:16:54.813Z,9.40
2018-12-11T12:21:49.281Z,9.30
2018-12-11T12:26:43.837Z,8.70
2018-12-11T12:31:38.320Z,8.60
2018-12-11T12:36:32.844Z,8.60
2018-12-11T12:41:27.366Z,9.30
2018-12-11T12:46:22.522Z,9.20
2018-12-11T12:51:17.064Z,9.00
2018-12-11T12:56:11.631Z,9.30
2018-12-11T13:01:06.201Z,10.40
2018-12-11T13:06:00.693Z,12.00
2018-12-11T13:10:56.252Z,12.60
2018-12-11T13:15:50.746Z,10.80
2018-12-11T13:20:45.254Z,11.10
2018-12-11T13:25:39.792Z,11.70
2018-12-11T13:30:34.290Z,11.80
2018-12-11T13:35:28.789Z,10.80
2018-12-11T13:40:23.373Z,8.60
2018-12-11T13:45:17.986Z,8.60
2018-12-11T13:50:12.677Z,7.60
2018-12-11T13:55:09.125Z,7.00
2018-12-11T14:00:04.263Z,6.80
2018-12-11T14:04:58.901Z,6.60
2018-12-11T14:09:53.367Z,6.50
2018-12-11T14:14:48.041Z,6.50
2018-12-11T14:19:42.941Z,6.30
2018-12-11T14:24:37.449Z,6.20
2018-12-11T14:29:31.996Z,6.00
2018-12-11T14:34:26.529Z,6.00
2018-12-11T14:39:21.311Z,6.00
2018-12-11T14:44:15.885Z,5.90
2018-12-11T14:49:10.893Z,5.80
2018-12-11T14:54:05.781Z,5.70
2018-12-11T14:59:00.445Z,5.60
2018-12-11T15:03:54.966Z,5.50
2018-12-11T15:08:49.773Z,5.30
2018-12-11T15:13:44.385Z,5.30
2018-12-11T15:18:38.930Z,5.20
2018-12-11T15:23:33.458Z,5.20
2018-12-11T15:28:27.995Z,5.10
2018-12-11T15:33:22.518Z,4.90
2018-12-11T15:38:17.016Z,4.80
2018-12-11T15:43:11.596Z,4.90
2018-12-11T15:48:06.175Z,4.80
2018-12-11T15:53:00.667Z,4.70
2018-12-11T15:57:55.353Z,4.60
2018-12-11T16:02:49.930Z,4.50
2018-12-11T16:07:44.569Z,4.40
2018-12-11T16:12:39.192Z,4.40
2018-12-11T16:17:33.798Z,4.30
2018-12-11T16:22:28.378Z,4.20
2018-12-11T16:27:23.263Z,4.10
2018-12-11T16:32:17.780Z,4.20
2018-12-11T16:37:12.936Z,4.20
2018-12-11T16:42:07.476Z,4.10
2018-12-11T16:47:02.198Z,4.00
2018-12-11T16:51:56.961Z,3.80
2018-12-11T16:56:52.293Z,3.70
2018-12-11T17:01:47.467Z,3.70
2018-12-11T17:06:42.359Z,3.60
2018-12-11T17:11:36.891Z,3.50
2018-12-11T17:16:31.429Z,3.30
2018-12-11T17:21:26.077Z,3.20
2018-12-11T17:26:20.569Z,3.10
2018-12-11T17:31:15.245Z,2.90
2018-12-11T17:36:09.879Z,2.90
2018-12-11T17:41:04.446Z,2.90
2018-12-11T17:45:58.942Z,3.20
2018-12-11T17:50:53.806Z,3.30
2018-12-11T17:55:48.358Z,3.40
2018-12-11T18:00:42.904Z,3.60
2018-12-11T18:05:37.365Z,3.80
2018-12-11T18:10:32.361Z,3.90
2018-12-11T18:15:27.646Z,3.90
2018-12-11T18:20:22.205Z,3.90
2018-12-11T18:25:17.073Z,3.80
2018-12-11T18:30:11.746Z,3.80
2018-12-11T18:35:07.482Z,3.60
2018-12-11T18:40:02.882Z,3.50
2018-12-11T18:45:03.267Z,3.60
2018-12-11T18:49:55.560Z,3.60
2018-12-11T18:54:50.718Z,3.70
2018-12-11T18:59:45.681Z,3.60
2018-12-11T19:04:40.468Z,3.50
2018-12-11T19:09:36.165Z,3.50
2018-12-11T19:14:30.830Z,3.40
2018-12-11T19:19:27.652Z,3.40
2018-12-11T19:24:30.948Z,3.40
2018-12-11T19:29:26.511Z,3.70
2018-12-11T19:34:22.199Z,3.90
2018-12-11T19:39:17.099Z,4.10
2018-12-11T19:44:12.224Z,4.10
2018-12-11T19:49:08.801Z,4.10
2018-12-11T19:54:04.568Z,4.00
2018-12-11T19:58:59.392Z,4.10
2018-12-11T20:03:54.771Z,4.10
2018-12-11T20:08:49.701Z,4.00
2018-12-11T20:13:44.393Z,4.20
2018-12-11T20:18:40.525Z,4.30
2018-12-11T20:23:35.404Z,4.30
2018-12-11T20:28:30.149Z,4.40
2018-12-11T20:33:26.180Z,4.30
2018-12-11T20:38:21.008Z,4.40
2018-12-11T20:43:16.978Z,4.40
2018-12-11T20:48:11.685Z,4.50
2018-12-11T20:53:08.028Z,4.50
2018-12-11T20:58:03.515Z,4.50
2018-12-11T21:02:58.361Z,4.50
2018-12-11T21:07:53.283Z,4.50
2018-12-11T21:12:47.941Z,4.60
2018-12-11T21:17:49.020Z,4.60
2018-12-11T21:22:50.287Z,4.60
2018-12-11T21:27:48.078Z,4.50
2018-12-11T21:32:45.217Z,4.40
2018-12-11T21:37:40.139Z,4.40
2018-12-11T21:42:34.831Z,4.50
2018-12-11T21:47:29.444Z,4.50
2018-12-11T21:52:32.065Z,4.40
2018-12-11T21:57:28.233Z,4.40
2018-12-11T22:02:23.095Z,4.40
2018-12-11T22:07:17.759Z,4.50
2018-12-11T22:12:12.680Z,4.40
2018-12-11T22:17:09.605Z,4.40
2018-12-11T22:22:04.076Z,4.40
2018-12-11T22:26:58.775Z,4.40
2018-12-11T22:31:56.550Z,4.50
2018-12-11T22:36:51.034Z,4.40
2018-12-11T22:41:45.469Z,4.40
2018-12-11T22:46:39.919Z,4.30
2018-12-11T22:51:34.861Z,4.30
2018-12-11T22:56:33.307Z,4.30
2018-12-11T23:01:31.489Z,4.20
2018-12-11T23:06:27.662Z,4.10
2018-12-11T23:11:23.051Z,4.10
2018-12-11T23:16:19.033Z,4.10
2018-12-11T23:21:15.847Z,4.00
2018-12-11T23:26:12.815Z,4.30
2018-12-11T23:31:08.235Z,4.40
2018-12-11T23:36:04.142Z,4.40
2018-12-11T23:40:59.401Z,4.30
2018-12-11T23:45:54.890Z,4.20
2018-12-11T23:50:49.796Z,4.20
2018-12-11T23:55:44.554Z,4.20
